sensor_id;sensor_type;location;lat;lon;timestamp;temperature;humidity
15409;DHT22;7803;48.130;13.788;2022-08-14T00:02:15;22.70;95.40
15409;DHT22;7803;48.130;13.788;2022-08-14T00:05:19;22.70;95.40
15409;DHT22;7803;48.130;13.788;2022-08-14T00:08:22;22.70;95.40
15409;DHT22;7803;48.130;13.788;2022-08-14T00:11:24;22.70;95.30
15409;DHT22;7803;48.130;13.788;2022-08-14T00:14:27;22.70;95.20
15409;DHT22;7803;48.130;13.788;2022-08-14T00:17:29;22.70;95.10
15409;DHT22;7803;48.130;13.788;2022-08-14T00:20:33;22.70;95.10
15409;DHT22;7803;48.130;13.788;2022-08-14T00:23:37;22.70;94.90
15409;DHT22;7803;48.130;13.788;2022-08-14T00:26:39;22.70;94.90
15409;DHT22;7803;48.130;13.788;2022-08-14T00:29:41;22.70;94.80
15409;DHT22;7803;48.130;13.788;2022-08-14T00:32:43;22.70;94.70
15409;DHT22;7803;48.130;13.788;2022-08-14T00:35:45;22.70;94.70
15409;DHT22;7803;48.130;13.788;2022-08-14T00:38:49;22.70;94.80
15409;DHT22;7803;48.130;13.788;2022-08-14T00:41:51;22.70;94.80
15409;DHT22;7803;48.130;13.788;2022-08-14T00:44:53;22.70;94.80
15409;DHT22;7803;48.130;13.788;2022-08-14T00:47:55;22.60;94.70
15409;DHT22;7803;48.130;13.788;2022-08-14T00:50:58;22.60;94.60
15409;DHT22;7803;48.130;13.788;2022-08-14T00:54:01;22.60;94.60
15409;DHT22;7803;48.130;13.788;2022-08-14T00:57:04;22.70;94.60
15409;DHT22;7803;48.130;13.788;2022-08-14T01:00:10;22.70;94.50
15409;DHT22;7803;48.130;13.788;2022-08-14T01:03:16;22.60;94.40
15409;DHT22;7803;48.130;13.788;2022-08-14T01:06:18;22.60;94.40
15409;DHT22;7803;48.130;13.788;2022-08-14T01:09:22;22.60;94.40
15409;DHT22;7803;48.130;13.788;2022-08-14T01:12:25;22.60;94.40
15409;DHT22;7803;48.130;13.788;2022-08-14T01:15:27;22.60;94.30
15409;DHT22;7803;48.130;13.788;2022-08-14T01:18:30;22.60;94.30
15409;DHT22;7803;48.130;13.788;2022-08-14T01:21:51;22.60;94.40
15409;DHT22;7803;48.130;13.788;2022-08-14T01:24:53;22.60;94.40
15409;DHT22;7803;48.130;13.788;2022-08-14T01:27:56;22.60;94.40
15409;DHT22;7803;48.130;13.788;2022-08-14T01:30:59;22.60;94.40
15409;DHT22;7803;48.130;13.788;2022-08-14T01:34:03;22.60;94.40
15409;DHT22;7803;48.130;13.788;2022-08-14T01:37:07;22.60;94.30
15409;DHT22;7803;48.130;13.788;2022-08-14T01:40:10;22.60;94.30
15409;DHT22;7803;48.130;13.788;2022-08-14T01:43:13;22.60;94.20
15409;DHT22;7803;48.130;13.788;2022-08-14T01:46:17;22.60;94.20
15409;DHT22;7803;48.130;13.788;2022-08-14T01:49:20;22.60;94.30
15409;DHT22;7803;48.130;13.788;2022-08-14T01:52:25;22.60;94.30
15409;DHT22;7803;48.130;13.788;2022-08-14T01:55:27;22.60;94.30
15409;DHT22;7803;48.130;13.788;2022-08-14T01:58:31;22.60;94.30
15409;DHT22;7803;48.130;13.788;2022-08-14T02:01:34;22.60;94.30
15409;DHT22;7803;48.130;13.788;2022-08-14T02:04:38;22.60;94.40
15409;DHT22;7803;48.130;13.788;2022-08-14T02:07:41;22.50;94.30
15409;DHT22;7803;48.130;13.788;2022-08-14T02:10:44;22.50;94.40
15409;DHT22;7803;48.130;13.788;2022-08-14T02:14:09;22.50;94.30
15409;DHT22;7803;48.130;13.788;2022-08-14T02:17:11;22.50;94.30
15409;DHT22;7803;48.130;13.788;2022-08-14T02:20:14;22.50;94.40
15409;DHT22;7803;48.130;13.788;2022-08-14T02:23:18;22.50;94.40
15409;DHT22;7803;48.130;13.788;2022-08-14T02:26:23;22.50;94.40
15409;DHT22;7803;48.130;13.788;2022-08-14T02:29:28;22.50;94.50
15409;DHT22;7803;48.130;13.788;2022-08-14T02:32:31;22.50;94.40
15409;DHT22;7803;48.130;13.788;2022-08-14T02:35:39;22.50;94.40
15409;DHT22;7803;48.130;13.788;2022-08-14T02:38:42;22.50;94.40
15409;DHT22;7803;48.130;13.788;2022-08-14T02:41:45;22.50;94.40
15409;DHT22;7803;48.130;13.788;2022-08-14T02:44:52;22.50;94.60
15409;DHT22;7803;48.130;13.788;2022-08-14T02:47:53;22.50;94.60
15409;DHT22;7803;48.130;13.788;2022-08-14T02:50:57;22.50;94.70
15409;DHT22;7803;48.130;13.788;2022-08-14T02:54:01;22.50;94.70
15409;DHT22;7803;48.130;13.788;2022-08-14T02:57:03;22.50;94.70
15409;DHT22;7803;48.130;13.788;2022-08-14T03:00:07;22.40;94.70
15409;DHT22;7803;48.130;13.788;2022-08-14T03:03:10;22.50;94.80
15409;DHT22;7803;48.130;13.788;2022-08-14T03:06:13;22.40;94.80
15409;DHT22;7803;48.130;13.788;2022-08-14T03:09:16;22.40;94.80
15409;DHT22;7803;48.130;13.788;2022-08-14T03:12:18;22.40;94.70
15409;DHT22;7803;48.130;13.788;2022-08-14T03:15:21;22.40;94.70
15409;DHT22;7803;48.130;13.788;2022-08-14T03:18:25;22.40;94.60
15409;DHT22;7803;48.130;13.788;2022-08-14T03:21:27;22.40;94.60
15409;DHT22;7803;48.130;13.788;2022-08-14T03:24:32;22.40;94.50
15409;DHT22;7803;48.130;13.788;2022-08-14T03:27:36;22.40;94.50
15409;DHT22;7803;48.130;13.788;2022-08-14T03:30:38;22.40;94.40
15409;DHT22;7803;48.130;13.788;2022-08-14T03:33:42;22.40;94.40
15409;DHT22;7803;48.130;13.788;2022-08-14T03:36:44;22.50;94.30
15409;DHT22;7803;48.130;13.788;2022-08-14T03:39:47;22.40;94.20
15409;DHT22;7803;48.130;13.788;2022-08-14T03:42:49;22.40;94.30
15409;DHT22;7803;48.130;13.788;2022-08-14T03:45:52;22.40;94.30
15409;DHT22;7803;48.130;13.788;2022-08-14T03:48:55;22.40;94.30
15409;DHT22;7803;48.130;13.788;2022-08-14T03:51:57;22.40;94.30
15409;DHT22;7803;48.130;13.788;2022-08-14T03:55:05;22.40;94.30
15409;DHT22;7803;48.130;13.788;2022-08-14T03:58:08;22.40;94.30
15409;DHT22;7803;48.130;13.788;2022-08-14T04:01:10;22.40;94.30
15409;DHT22;7803;48.130;13.788;2022-08-14T04:04:12;22.40;94.40
15409;DHT22;7803;48.130;13.788;2022-08-14T04:07:14;22.30;94.30
15409;DHT22;7803;48.130;13.788;2022-08-14T04:10:18;22.40;94.30
15409;DHT22;7803;48.130;13.788;2022-08-14T04:13:21;22.40;94.30
15409;DHT22;7803;48.130;13.788;2022-08-14T04:16:23;22.30;94.30
15409;DHT22;7803;48.130;13.788;2022-08-14T04:19:25;22.40;94.30
15409;DHT22;7803;48.130;13.788;2022-08-14T04:22:27;22.40;94.40
15409;DHT22;7803;48.130;13.788;2022-08-14T04:25:31;22.40;94.50
15409;DHT22;7803;48.130;13.788;2022-08-14T04:28:36;22.30;94.50
15409;DHT22;7803;48.130;13.788;2022-08-14T04:31:38;22.30;94.50
15409;DHT22;7803;48.130;13.788;2022-08-14T04:34:40;22.30;94.50
15409;DHT22;7803;48.130;13.788;2022-08-14T04:37:42;22.30;94.60
15409;DHT22;7803;48.130;13.788;2022-08-14T04:41:03;22.30;94.60
15409;DHT22;7803;48.130;13.788;2022-08-14T04:44:22;22.30;94.60
15409;DHT22;7803;48.130;13.788;2022-08-14T04:47:24;22.30;94.60
15409;DHT22;7803;48.130;13.788;2022-08-14T04:50:44;22.30;94.60
15409;DHT22;7803;48.130;13.788;2022-08-14T04:53:48;22.30;94.50
15409;DHT22;7803;48.130;13.788;2022-08-14T04:56:51;22.30;94.40
15409;DHT22;7803;48.130;13.788;2022-08-14T04:59:54;22.30;94.40
15409;DHT22;7803;48.130;13.788;2022-08-14T05:02:56;22.30;94.40
15409;DHT22;7803;48.130;13.788;2022-08-14T05:06:02;22.30;94.50
15409;DHT22;7803;48.130;13.788;2022-08-14T05:09:05;22.30;94.40
15409;DHT22;7803;48.130;13.788;2022-08-14T05:12:08;22.30;94.50
15409;DHT22;7803;48.130;13.788;2022-08-14T05:15:12;22.30;94.60
15409;DHT22;7803;48.130;13.788;2022-08-14T05:18:15;22.30;94.60
15409;DHT22;7803;48.130;13.788;2022-08-14T05:21:18;22.30;94.70
15409;DHT22;7803;48.130;13.788;2022-08-14T05:24:20;22.30;94.90
15409;DHT22;7803;48.130;13.788;2022-08-14T05:27:23;22.30;94.90
15409;DHT22;7803;48.130;13.788;2022-08-14T05:30:25;22.30;95.10
15409;DHT22;7803;48.130;13.788;2022-08-14T05:33:29;22.30;95.30
15409;DHT22;7803;48.130;13.788;2022-08-14T05:36:32;22.30;95.40
15409;DHT22;7803;48.130;13.788;2022-08-14T05:39:34;22.30;95.50
15409;DHT22;7803;48.130;13.788;2022-08-14T05:42:38;22.30;95.70
15409;DHT22;7803;48.130;13.788;2022-08-14T05:45:40;22.30;95.60
15409;DHT22;7803;48.130;13.788;2022-08-14T05:48:42;22.30;95.40
15409;DHT22;7803;48.130;13.788;2022-08-14T05:51:44;22.30;95.20
15409;DHT22;7803;48.130;13.788;2022-08-14T05:54:47;22.30;95.20
15409;DHT22;7803;48.130;13.788;2022-08-14T05:57:52;22.30;95.40
15409;DHT22;7803;48.130;13.788;2022-08-14T06:00:55;22.30;95.40
15409;DHT22;7803;48.130;13.788;2022-08-14T06:03:57;22.30;96.70
15409;DHT22;7803;48.130;13.788;2022-08-14T06:06:59;22.30;98.50
15409;DHT22;7803;48.130;13.788;2022-08-14T06:10:01;22.40;98.50
15409;DHT22;7803;48.130;13.788;2022-08-14T06:13:04;22.30;98.50
15409;DHT22;7803;48.130;13.788;2022-08-14T06:16:06;22.30;98.40
15409;DHT22;7803;48.130;13.788;2022-08-14T06:19:08;22.30;98.70
15409;DHT22;7803;48.130;13.788;2022-08-14T06:22:10;22.30;99.80
15409;DHT22;7803;48.130;13.788;2022-08-14T06:25:14;22.30;99.90
15409;DHT22;7803;48.130;13.788;2022-08-14T06:28:18;22.30;99.90
15409;DHT22;7803;48.130;13.788;2022-08-14T06:31:21;22.30;99.90
15409;DHT22;7803;48.130;13.788;2022-08-14T06:34:23;22.40;99.90
15409;DHT22;7803;48.130;13.788;2022-08-14T06:37:25;22.40;99.90
15409;DHT22;7803;48.130;13.788;2022-08-14T06:40:29;22.40;99.90
15409;DHT22;7803;48.130;13.788;2022-08-14T06:43:32;22.50;99.90
15409;DHT22;7803;48.130;13.788;2022-08-14T06:46:34;22.50;99.90
15409;DHT22;7803;48.130;13.788;2022-08-14T06:49:36;22.50;99.90
15409;DHT22;7803;48.130;13.788;2022-08-14T06:52:38;22.50;99.90
15409;DHT22;7803;48.130;13.788;2022-08-14T06:55:41;22.50;99.90
15409;DHT22;7803;48.130;13.788;2022-08-14T06:58:44;22.50;99.90
15409;DHT22;7803;48.130;13.788;2022-08-14T07:01:46;22.50;99.90
15409;DHT22;7803;48.130;13.788;2022-08-14T07:05:06;22.50;99.90
15409;DHT22;7803;48.130;13.788;2022-08-14T07:08:27;22.60;99.90
15409;DHT22;7803;48.130;13.788;2022-08-14T07:11:29;22.50;99.90
15409;DHT22;7803;48.130;13.788;2022-08-14T07:14:33;22.60;99.90
15409;DHT22;7803;48.130;13.788;2022-08-14T07:17:43;22.60;99.90
15409;DHT22;7803;48.130;13.788;2022-08-14T07:20:45;22.50;99.90
15409;DHT22;7803;48.130;13.788;2022-08-14T07:23:47;22.60;99.90
15409;DHT22;7803;48.130;13.788;2022-08-14T07:26:49;22.50;99.90
15409;DHT22;7803;48.130;13.788;2022-08-14T07:29:52;22.50;99.90
15409;DHT22;7803;48.130;13.788;2022-08-14T07:32:54;22.60;99.90
15409;DHT22;7803;48.130;13.788;2022-08-14T07:35:58;22.60;99.90
15409;DHT22;7803;48.130;13.788;2022-08-14T07:39:01;22.60;99.90
15409;DHT22;7803;48.130;13.788;2022-08-14T07:42:04;22.50;99.90
15409;DHT22;7803;48.130;13.788;2022-08-14T07:45:10;22.60;99.90
15409;DHT22;7803;48.130;13.788;2022-08-14T07:48:12;22.60;99.90
15409;DHT22;7803;48.130;13.788;2022-08-14T07:51:14;22.60;99.90
15409;DHT22;7803;48.130;13.788;2022-08-14T07:54:16;22.60;99.90
15409;DHT22;7803;48.130;13.788;2022-08-14T07:57:19;22.60;99.90
15409;DHT22;7803;48.130;13.788;2022-08-14T08:00:24;22.60;99.90
15409;DHT22;7803;48.130;13.788;2022-08-14T08:03:26;22.60;99.90
15409;DHT22;7803;48.130;13.788;2022-08-14T08:06:29;22.60;99.90
15409;DHT22;7803;48.130;13.788;2022-08-14T08:09:31;22.60;99.90
15409;DHT22;7803;48.130;13.788;2022-08-14T08:12:35;22.60;99.90
15409;DHT22;7803;48.130;13.788;2022-08-14T08:15:41;22.60;99.90
15409;DHT22;7803;48.130;13.788;2022-08-14T08:18:43;22.60;99.90
15409;DHT22;7803;48.130;13.788;2022-08-14T08:21:45;22.60;99.90
15409;DHT22;7803;48.130;13.788;2022-08-14T08:24:47;22.60;99.90
15409;DHT22;7803;48.130;13.788;2022-08-14T08:27:57;22.60;99.90
15409;DHT22;7803;48.130;13.788;2022-08-14T08:31:02;22.60;99.90
15409;DHT22;7803;48.130;13.788;2022-08-14T08:34:05;22.70;99.90
15409;DHT22;7803;48.130;13.788;2022-08-14T08:37:07;22.70;99.90
15409;DHT22;7803;48.130;13.788;2022-08-14T08:40:10;22.80;99.90
15409;DHT22;7803;48.130;13.788;2022-08-14T08:43:19;22.90;99.90
15409;DHT22;7803;48.130;13.788;2022-08-14T08:46:22;23.00;99.90
15409;DHT22;7803;48.130;13.788;2022-08-14T08:49:34;23.10;99.90
15409;DHT22;7803;48.130;13.788;2022-08-14T08:52:46;23.10;99.90
15409;DHT22;7803;48.130;13.788;2022-08-14T08:55:48;23.10;99.90
15409;DHT22;7803;48.130;13.788;2022-08-14T08:58:50;23.10;99.90
15409;DHT22;7803;48.130;13.788;2022-08-14T09:01:57;23.10;99.90
15409;DHT22;7803;48.130;13.788;2022-08-14T09:05:02;23.10;99.90
15409;DHT22;7803;48.130;13.788;2022-08-14T09:08:15;23.10;99.90
15409;DHT22;7803;48.130;13.788;2022-08-14T09:11:17;23.10;99.90
15409;DHT22;7803;48.130;13.788;2022-08-14T09:14:20;23.10;99.90
15409;DHT22;7803;48.130;13.788;2022-08-14T09:17:23;23.10;99.90
15409;DHT22;7803;48.130;13.788;2022-08-14T09:20:25;23.10;99.90
15409;DHT22;7803;48.130;13.788;2022-08-14T09:23:28;23.20;99.90
15409;DHT22;7803;48.130;13.788;2022-08-14T09:26:30;23.20;99.90
15409;DHT22;7803;48.130;13.788;2022-08-14T09:29:32;23.20;99.90
15409;DHT22;7803;48.130;13.788;2022-08-14T09:32:45;23.20;99.90
15409;DHT22;7803;48.130;13.788;2022-08-14T09:35:59;23.20;99.90
15409;DHT22;7803;48.130;13.788;2022-08-14T09:39:12;23.20;99.90
15409;DHT22;7803;48.130;13.788;2022-08-14T09:42:34;23.20;99.90
15409;DHT22;7803;48.130;13.788;2022-08-14T09:45:45;23.20;99.90
15409;DHT22;7803;48.130;13.788;2022-08-14T09:48:58;23.20;99.90
15409;DHT22;7803;48.130;13.788;2022-08-14T09:52:03;23.20;99.90
15409;DHT22;7803;48.130;13.788;2022-08-14T09:55:15;23.20;99.90
15409;DHT22;7803;48.130;13.788;2022-08-14T09:58:19;23.20;99.90
15409;DHT22;7803;48.130;13.788;2022-08-14T10:01:21;23.20;99.90
15409;DHT22;7803;48.130;13.788;2022-08-14T10:04:26;23.10;99.90
15409;DHT22;7803;48.130;13.788;2022-08-14T10:07:30;23.20;99.90
15409;DHT22;7803;48.130;13.788;2022-08-14T10:10:34;23.10;99.90
15409;DHT22;7803;48.130;13.788;2022-08-14T10:13:37;23.10;99.90
15409;DHT22;7803;48.130;13.788;2022-08-14T10:16:42;23.20;99.90
15409;DHT22;7803;48.130;13.788;2022-08-14T10:19:48;23.10;99.90
15409;DHT22;7803;48.130;13.788;2022-08-14T10:22:50;23.10;99.90
15409;DHT22;7803;48.130;13.788;2022-08-14T10:25:56;23.10;99.90
15409;DHT22;7803;48.130;13.788;2022-08-14T10:29:04;23.10;99.90
15409;DHT22;7803;48.130;13.788;2022-08-14T10:32:07;23.10;99.90
15409;DHT22;7803;48.130;13.788;2022-08-14T10:35:13;23.10;99.90
15409;DHT22;7803;48.130;13.788;2022-08-14T10:38:25;23.10;99.90
15409;DHT22;7803;48.130;13.788;2022-08-14T10:41:37;23.10;99.90
15409;DHT22;7803;48.130;13.788;2022-08-14T10:44:41;23.10;99.90
15409;DHT22;7803;48.130;13.788;2022-08-14T10:47:47;23.10;99.90
15409;DHT22;7803;48.130;13.788;2022-08-14T10:50:50;23.10;99.90
15409;DHT22;7803;48.130;13.788;2022-08-14T10:53:54;23.00;99.90
15409;DHT22;7803;48.130;13.788;2022-08-14T10:56:56;23.10;99.90
15409;DHT22;7803;48.130;13.788;2022-08-14T11:00:00;23.10;99.90
15409;DHT22;7803;48.130;13.788;2022-08-14T11:03:03;23.10;99.90
15409;DHT22;7803;48.130;13.788;2022-08-14T11:06:13;23.00;99.90
15409;DHT22;7803;48.130;13.788;2022-08-14T11:09:19;23.00;99.90
15409;DHT22;7803;48.130;13.788;2022-08-14T11:12:22;23.20;99.90
15409;DHT22;7803;48.130;13.788;2022-08-14T11:15:25;23.00;99.90
15409;DHT22;7803;48.130;13.788;2022-08-14T11:18:29;23.00;99.90
15409;DHT22;7803;48.130;13.788;2022-08-14T11:21:34;23.00;99.90
15409;DHT22;7803;48.130;13.788;2022-08-14T11:24:41;23.00;99.90
15409;DHT22;7803;48.130;13.788;2022-08-14T11:27:46;23.00;99.90
15409;DHT22;7803;48.130;13.788;2022-08-14T11:30:49;23.00;99.90
15409;DHT22;7803;48.130;13.788;2022-08-14T11:33:52;23.00;99.90
15409;DHT22;7803;48.130;13.788;2022-08-14T11:37:07;23.00;99.90
15409;DHT22;7803;48.130;13.788;2022-08-14T11:40:15;23.00;99.90
15409;DHT22;7803;48.130;13.788;2022-08-14T11:43:17;23.00;99.90
15409;DHT22;7803;48.130;13.788;2022-08-14T11:46:20;23.00;99.90
15409;DHT22;7803;48.130;13.788;2022-08-14T11:49:25;23.00;99.90
15409;DHT22;7803;48.130;13.788;2022-08-14T11:52:34;23.00;99.90
15409;DHT22;7803;48.130;13.788;2022-08-14T11:55:38;23.00;99.90
15409;DHT22;7803;48.130;13.788;2022-08-14T11:58:40;23.00;99.90
15409;DHT22;7803;48.130;13.788;2022-08-14T12:01:43;23.00;99.90
15409;DHT22;7803;48.130;13.788;2022-08-14T12:04:49;23.00;99.90
15409;DHT22;7803;48.130;13.788;2022-08-14T12:07:53;23.00;99.90
15409;DHT22;7803;48.130;13.788;2022-08-14T12:10:56;23.00;99.90
15409;DHT22;7803;48.130;13.788;2022-08-14T12:14:06;23.00;99.90
15409;DHT22;7803;48.130;13.788;2022-08-14T12:17:08;23.00;99.90
15409;DHT22;7803;48.130;13.788;2022-08-14T12:20:11;23.00;99.90
15409;DHT22;7803;48.130;13.788;2022-08-14T12:23:21;23.00;99.90
15409;DHT22;7803;48.130;13.788;2022-08-14T12:26:23;23.00;99.90
15409;DHT22;7803;48.130;13.788;2022-08-14T12:29:25;23.00;99.90
15409;DHT22;7803;48.130;13.788;2022-08-14T12:32:37;23.00;99.90
15409;DHT22;7803;48.130;13.788;2022-08-14T12:35:41;23.00;99.90
15409;DHT22;7803;48.130;13.788;2022-08-14T12:38:44;23.00;99.90
15409;DHT22;7803;48.130;13.788;2022-08-14T12:41:48;23.00;99.90
15409;DHT22;7803;48.130;13.788;2022-08-14T12:44:54;23.00;99.90
15409;DHT22;7803;48.130;13.788;2022-08-14T12:48:00;23.00;99.90
15409;DHT22;7803;48.130;13.788;2022-08-14T12:51:02;23.00;99.90
15409;DHT22;7803;48.130;13.788;2022-08-14T12:54:13;23.00;99.90
15409;DHT22;7803;48.130;13.788;2022-08-14T12:57:16;23.00;99.90
15409;DHT22;7803;48.130;13.788;2022-08-14T13:00:20;23.00;99.90
15409;DHT22;7803;48.130;13.788;2022-08-14T13:03:23;23.00;99.90
15409;DHT22;7803;48.130;13.788;2022-08-14T13:06:26;23.00;99.90
15409;DHT22;7803;48.130;13.788;2022-08-14T13:09:29;23.00;99.90
15409;DHT22;7803;48.130;13.788;2022-08-14T13:12:32;23.00;99.90
15409;DHT22;7803;48.130;13.788;2022-08-14T13:15:34;23.00;99.90
15409;DHT22;7803;48.130;13.788;2022-08-14T13:18:39;23.00;99.90
15409;DHT22;7803;48.130;13.788;2022-08-14T13:21:42;23.00;99.90
15409;DHT22;7803;48.130;13.788;2022-08-14T13:24:47;23.00;99.80
15409;DHT22;7803;48.130;13.788;2022-08-14T13:27:52;23.00;99.90
15409;DHT22;7803;48.130;13.788;2022-08-14T13:30:56;23.00;99.90
15409;DHT22;7803;48.130;13.788;2022-08-14T13:34:04;23.00;99.90
15409;DHT22;7803;48.130;13.788;2022-08-14T13:37:06;23.00;99.90
15409;DHT22;7803;48.130;13.788;2022-08-14T13:40:11;23.00;99.90
15409;DHT22;7803;48.130;13.788;2022-08-14T13:43:15;23.00;99.90
15409;DHT22;7803;48.130;13.788;2022-08-14T13:46:18;23.00;99.90
15409;DHT22;7803;48.130;13.788;2022-08-14T13:49:20;23.00;99.80
15409;DHT22;7803;48.130;13.788;2022-08-14T13:52:23;23.00;99.90
15409;DHT22;7803;48.130;13.788;2022-08-14T13:55:28;23.00;99.90
15409;DHT22;7803;48.130;13.788;2022-08-14T13:58:33;23.00;99.90
15409;DHT22;7803;48.130;13.788;2022-08-14T14:01:37;23.00;99.90
15409;DHT22;7803;48.130;13.788;2022-08-14T14:04:43;23.00;99.90
15409;DHT22;7803;48.130;13.788;2022-08-14T14:07:47;23.00;99.80
15409;DHT22;7803;48.130;13.788;2022-08-14T14:10:51;23.00;99.80
15409;DHT22;7803;48.130;13.788;2022-08-14T14:13:56;23.00;99.80
15409;DHT22;7803;48.130;13.788;2022-08-14T14:16:59;23.00;99.90
15409;DHT22;7803;48.130;13.788;2022-08-14T14:20:02;23.00;99.90
15409;DHT22;7803;48.130;13.788;2022-08-14T14:23:04;23.00;99.90
15409;DHT22;7803;48.130;13.788;2022-08-14T14:26:12;23.00;99.90
15409;DHT22;7803;48.130;13.788;2022-08-14T14:29:17;23.00;99.90
15409;DHT22;7803;48.130;13.788;2022-08-14T14:32:21;23.00;99.90
15409;DHT22;7803;48.130;13.788;2022-08-14T14:35:27;23.00;99.90
15409;DHT22;7803;48.130;13.788;2022-08-14T14:38:29;23.00;99.80
15409;DHT22;7803;48.130;13.788;2022-08-14T14:41:38;23.00;99.80
15409;DHT22;7803;48.130;13.788;2022-08-14T14:44:41;23.00;99.90
15409;DHT22;7803;48.130;13.788;2022-08-14T14:47:47;23.00;99.80
15409;DHT22;7803;48.130;13.788;2022-08-14T14:50:50;23.00;99.80
15409;DHT22;7803;48.130;13.788;2022-08-14T14:53:52;23.00;99.80
15409;DHT22;7803;48.130;13.788;2022-08-14T14:56:57;23.00;99.80
15409;DHT22;7803;48.130;13.788;2022-08-14T14:59:59;23.00;99.70
15409;DHT22;7803;48.130;13.788;2022-08-14T15:03:01;23.00;99.70
15409;DHT22;7803;48.130;13.788;2022-08-14T15:06:04;23.00;99.60
15409;DHT22;7803;48.130;13.788;2022-08-14T15:09:07;23.00;99.70
15409;DHT22;7803;48.130;13.788;2022-08-14T15:12:11;23.00;99.70
15409;DHT22;7803;48.130;13.788;2022-08-14T15:15:13;23.00;99.80
15409;DHT22;7803;48.130;13.788;2022-08-14T15:18:15;23.00;99.80
15409;DHT22;7803;48.130;13.788;2022-08-14T15:21:20;23.00;99.70
15409;DHT22;7803;48.130;13.788;2022-08-14T15:24:22;23.00;99.70
15409;DHT22;7803;48.130;13.788;2022-08-14T15:27:25;23.00;99.90
15409;DHT22;7803;48.130;13.788;2022-08-14T15:30:28;23.00;99.90
15409;DHT22;7803;48.130;13.788;2022-08-14T15:33:30;23.10;99.90
15409;DHT22;7803;48.130;13.788;2022-08-14T15:36:50;23.00;99.80
15409;DHT22;7803;48.130;13.788;2022-08-14T15:39:52;23.00;99.80
15409;DHT22;7803;48.130;13.788;2022-08-14T15:42:55;23.00;99.90
15409;DHT22;7803;48.130;13.788;2022-08-14T15:45:57;23.10;99.90
15409;DHT22;7803;48.130;13.788;2022-08-14T15:48:59;23.00;99.90
15409;DHT22;7803;48.130;13.788;2022-08-14T15:52:02;23.00;99.90
15409;DHT22;7803;48.130;13.788;2022-08-14T15:55:06;23.00;99.90
15409;DHT22;7803;48.130;13.788;2022-08-14T15:58:10;23.10;99.90
15409;DHT22;7803;48.130;13.788;2022-08-14T16:01:12;23.10;99.90
15409;DHT22;7803;48.130;13.788;2022-08-14T16:04:24;23.10;99.90
15409;DHT22;7803;48.130;13.788;2022-08-14T16:07:26;23.50;99.80
15409;DHT22;7803;48.130;13.788;2022-08-14T16:10:28;23.90;97.80
15409;DHT22;7803;48.130;13.788;2022-08-14T16:13:32;24.20;96.40
15409;DHT22;7803;48.130;13.788;2022-08-14T16:16:37;24.30;95.60
15409;DHT22;7803;48.130;13.788;2022-08-14T16:19:41;24.40;95.30
15409;DHT22;7803;48.130;13.788;2022-08-14T16:22:47;24.40;95.20
15409;DHT22;7803;48.130;13.788;2022-08-14T16:25:50;24.30;95.30
15409;DHT22;7803;48.130;13.788;2022-08-14T16:28:55;24.20;95.50
15409;DHT22;7803;48.130;13.788;2022-08-14T16:32:04;24.20;95.60
15409;DHT22;7803;48.130;13.788;2022-08-14T16:35:09;24.10;96.00
15409;DHT22;7803;48.130;13.788;2022-08-14T16:38:14;24.20;95.80
15409;DHT22;7803;48.130;13.788;2022-08-14T16:41:16;24.10;95.90
15409;DHT22;7803;48.130;13.788;2022-08-14T16:44:27;24.10;96.00
15409;DHT22;7803;48.130;13.788;2022-08-14T16:47:38;24.00;96.60
15409;DHT22;7803;48.130;13.788;2022-08-14T16:50:40;24.00;96.40
15409;DHT22;7803;48.130;13.788;2022-08-14T16:53:43;23.90;96.60
15409;DHT22;7803;48.130;13.788;2022-08-14T16:56:45;23.90;96.60
15409;DHT22;7803;48.130;13.788;2022-08-14T16:59:49;23.90;96.80
15409;DHT22;7803;48.130;13.788;2022-08-14T17:02:59;23.80;96.80
15409;DHT22;7803;48.130;13.788;2022-08-14T17:06:01;23.80;96.90
15409;DHT22;7803;48.130;13.788;2022-08-14T17:09:05;23.80;97.00
15409;DHT22;7803;48.130;13.788;2022-08-14T17:12:11;23.70;97.10
15409;DHT22;7803;48.130;13.788;2022-08-14T17:15:15;23.70;97.10
15409;DHT22;7803;48.130;13.788;2022-08-14T17:18:34;23.70;97.20
15409;DHT22;7803;48.130;13.788;2022-08-14T17:21:37;23.70;97.30
15409;DHT22;7803;48.130;13.788;2022-08-14T17:24:39;23.70;97.40
15409;DHT22;7803;48.130;13.788;2022-08-14T17:27:41;23.70;97.50
15409;DHT22;7803;48.130;13.788;2022-08-14T17:30:50;23.70;97.70
15409;DHT22;7803;48.130;13.788;2022-08-14T17:33:53;23.70;97.70
15409;DHT22;7803;48.130;13.788;2022-08-14T17:36:58;23.70;97.80
15409;DHT22;7803;48.130;13.788;2022-08-14T17:40:03;23.60;97.80
15409;DHT22;7803;48.130;13.788;2022-08-14T17:43:05;23.60;97.90
15409;DHT22;7803;48.130;13.788;2022-08-14T17:46:09;23.60;98.00
15409;DHT22;7803;48.130;13.788;2022-08-14T17:49:12;23.60;98.20
15409;DHT22;7803;48.130;13.788;2022-08-14T17:52:15;23.60;98.10
15409;DHT22;7803;48.130;13.788;2022-08-14T17:55:20;23.60;98.00
15409;DHT22;7803;48.130;13.788;2022-08-14T17:58:23;23.60;98.20
15409;DHT22;7803;48.130;13.788;2022-08-14T18:01:27;23.60;98.30
15409;DHT22;7803;48.130;13.788;2022-08-14T18:04:30;23.60;98.30
15409;DHT22;7803;48.130;13.788;2022-08-14T18:07:33;23.60;98.40
15409;DHT22;7803;48.130;13.788;2022-08-14T18:10:38;23.60;98.50
15409;DHT22;7803;48.130;13.788;2022-08-14T18:13:42;23.50;98.60
15409;DHT22;7803;48.130;13.788;2022-08-14T18:16:46;23.60;98.70
15409;DHT22;7803;48.130;13.788;2022-08-14T18:19:49;23.60;98.70
15409;DHT22;7803;48.130;13.788;2022-08-14T18:22:51;23.60;98.70
15409;DHT22;7803;48.130;13.788;2022-08-14T18:25:54;23.60;98.70
15409;DHT22;7803;48.130;13.788;2022-08-14T18:28:58;23.60;98.70
15409;DHT22;7803;48.130;13.788;2022-08-14T18:32:02;23.60;98.80
15409;DHT22;7803;48.130;13.788;2022-08-14T18:35:41;23.50;99.00
15409;DHT22;7803;48.130;13.788;2022-08-14T18:38:43;23.60;99.90
15409;DHT22;7803;48.130;13.788;2022-08-14T18:41:45;23.60;99.90
15409;DHT22;7803;48.130;13.788;2022-08-14T18:45:07;23.50;99.90
15409;DHT22;7803;48.130;13.788;2022-08-14T18:48:25;23.60;99.90
15409;DHT22;7803;48.130;13.788;2022-08-14T18:51:31;23.60;99.90
15409;DHT22;7803;48.130;13.788;2022-08-14T18:54:36;23.50;99.90
15409;DHT22;7803;48.130;13.788;2022-08-14T19:01:22;23.50;99.90
15409;DHT22;7803;48.130;13.788;2022-08-14T19:04:36;23.50;99.90
15409;DHT22;7803;48.130;13.788;2022-08-14T19:07:38;23.50;99.90
15409;DHT22;7803;48.130;13.788;2022-08-14T19:10:40;23.50;99.90
15409;DHT22;7803;48.130;13.788;2022-08-14T19:13:43;23.50;99.90
15409;DHT22;7803;48.130;13.788;2022-08-14T19:16:45;23.50;99.90
15409;DHT22;7803;48.130;13.788;2022-08-14T19:20:03;23.50;99.90
15409;DHT22;7803;48.130;13.788;2022-08-14T19:23:14;23.50;99.90
15409;DHT22;7803;48.130;13.788;2022-08-14T19:26:22;23.50;99.90
15409;DHT22;7803;48.130;13.788;2022-08-14T19:29:26;23.50;99.90